aviador You're here:

KGEY Decoded Metar

GREYBULL in WY, USA
Report Time2018-01-23 04:53:00
UTC Time2018-01-23 05:55:47
Flight Rules vfr VFR
Wind040° at 04 kt
W.Decomp.*RWY 34: 2.8 kt HW 2.9 kt RCW
RWY 07: 2.9 kt HW 2.8 kt LCW
W.Rank040° ranks 34
Current wind is below 040° avg. (4.7)
Visibility9999 m
Phenomena:N/A
Clouds:Few 065 Hf
Broken 090 Hf
Overcast 110 Hf
Expected CloudBase > 1,200 ft AGL from Temp-Dew spread
Ceiling9,000 ft
Temp-7°C (ISA -14)
Dew Point-10°C (79% RH)
AAT-11.5°C
QNH1021 hPa
Density Alt1,936 ft
Elevation3,907 ft
Report Wrong Elevation
Raw Report
KGEY 230453Z AUTO 04004KT 10SM FEW065 BKN090 OVC110 M07/M10 A3015
RMK AO2 SLP276 T10721100=

Extra information for KGEY:More info

Metar Taf Metar & Taf Last 4 Metars F.Rules Stats Wind Profile Meteogram Temp Stats Airport Information Weather charts Add Link Nearby VenuesMetar ALERT Operation Metar Decoded Social comments

AIRNAV info for KGEY